createdAt,value
2018-12-08T00:04:51.081Z,10.89
2018-12-08T00:10:01.560Z,9.74
2018-12-08T00:15:13.797Z,8.76
2018-12-08T00:20:26.809Z,8.19
2018-12-08T00:25:38.235Z,8.06
2018-12-08T00:31:06.616Z,8.09
2018-12-08T00:36:21.015Z,8.12
2018-12-08T00:41:32.636Z,8.23
2018-12-08T00:46:45.921Z,8.19
2018-12-08T00:51:57.914Z,8.11
2018-12-08T00:57:12.030Z,7.95
2018-12-08T01:02:25.198Z,7.96
2018-12-08T01:07:38.742Z,8.01
2018-12-08T01:12:51.078Z,7.98
2018-12-08T01:19:10.003Z,7.87
2018-12-08T01:24:21.724Z,7.76
2018-12-08T01:29:35.752Z,7.61
2018-12-08T01:36:23.655Z,7.67
2018-12-08T01:41:36.106Z,7.81
2018-12-08T01:49:32.750Z,7.35
2018-12-08T01:54:45.041Z,7.59
2018-12-08T01:59:57.689Z,7.55
2018-12-08T02:05:09.834Z,7.55
2018-12-08T02:10:24.037Z,7.51
2018-12-08T02:15:36.385Z,7.29
2018-12-08T02:20:48.656Z,7.25
2018-12-08T02:26:01.333Z,7.11
2018-12-08T02:31:12.691Z,6.99
2018-12-08T02:36:25.794Z,6.90
2018-12-08T02:41:37.687Z,6.91
2018-12-08T02:44:07.946Z,6.91
2018-12-08T02:49:21.042Z,6.86
2018-12-08T02:54:38.024Z,6.91
2018-12-08T02:59:50.840Z,7.15
2018-12-08T03:05:03.033Z,7.13
2018-12-08T03:10:17.034Z,7.12
2018-12-08T03:15:30.473Z,7.30
2018-12-08T03:20:44.030Z,7.13
2018-12-08T03:25:56.734Z,7.12
2018-12-08T03:31:08.931Z,7.16
2018-12-08T03:36:21.736Z,7.06
2018-12-08T03:41:34.953Z,7.17
2018-12-08T03:46:47.803Z,7.20
2018-12-08T03:51:59.836Z,7.29
2018-12-08T03:57:12.679Z,7.27
2018-12-08T04:02:22.773Z,7.20
2018-12-08T04:07:35.914Z,7.26
2018-12-08T04:12:49.539Z,7.26
2018-12-08T04:18:02.684Z,7.15
2018-12-08T04:23:14.386Z,7.14
2018-12-08T04:28:27.690Z,7.31
2018-12-08T04:33:39.471Z,7.24
2018-12-08T04:36:09.739Z,7.08
2018-12-08T04:41:22.659Z,7.07
2018-12-08T04:46:35.686Z,6.85
2018-12-08T04:51:48.045Z,6.93
2018-12-08T04:57:00.749Z,6.81
2018-12-08T05:02:12.835Z,6.74
2018-12-08T05:07:25.706Z,6.71
2018-12-08T05:12:37.692Z,6.71
2018-12-08T05:17:52.670Z,6.67
2018-12-08T05:23:04.770Z,6.57
2018-12-08T05:28:17.898Z,6.50
2018-12-08T05:33:31.380Z,6.54
2018-12-08T05:38:42.726Z,6.42
2018-12-08T05:43:53.774Z,6.43
2018-12-08T05:49:06.904Z,6.39
2018-12-08T05:54:18.923Z,6.36
2018-12-08T05:59:31.378Z,6.30
2018-12-08T06:02:01.694Z,6.39
2018-12-08T06:07:14.034Z,6.50
2018-12-08T06:12:25.838Z,6.47
2018-12-08T06:17:38.038Z,6.45
2018-12-08T06:22:50.917Z,6.51
2018-12-08T06:28:23.715Z,6.58
2018-12-08T06:33:35.752Z,6.51
2018-12-08T06:36:05.968Z,6.51
2018-12-08T06:41:17.697Z,6.47
2018-12-08T06:46:30.757Z,6.44
2018-12-08T06:51:42.689Z,6.40
2018-12-08T06:56:55.337Z,6.54
2018-12-08T07:02:07.688Z,6.46
2018-12-08T07:04:37.712Z,6.42
2018-12-08T07:09:50.394Z,6.45
2018-12-08T07:15:02.488Z,6.45
2018-12-08T07:20:16.426Z,6.51
2018-12-08T07:25:27.660Z,6.63
2018-12-08T07:30:40.916Z,6.68
2018-12-08T07:35:54.381Z,6.53
2018-12-08T07:41:05.341Z,6.42
2018-12-08T07:46:16.851Z,6.37
2018-12-08T07:51:27.834Z,6.45
2018-12-08T07:56:40.694Z,6.66
2018-12-08T08:01:52.532Z,6.55
2018-12-08T08:07:05.917Z,6.83
2018-12-08T08:12:17.615Z,6.92
2018-12-08T08:17:30.684Z,7.22
2018-12-08T08:22:42.027Z,7.34
2018-12-08T08:27:56.441Z,7.36
2018-12-08T08:33:07.682Z,7.63
2018-12-08T08:38:20.677Z,7.63
2018-12-08T08:43:31.467Z,7.74
2018-12-08T08:48:44.807Z,8.03
2018-12-08T08:53:56.644Z,8.65
2018-12-08T08:56:27.910Z,8.97
2018-12-08T09:01:39.576Z,8.64
2018-12-08T09:04:10.493Z,8.47
2018-12-08T09:09:23.663Z,8.53
2018-12-08T09:14:35.651Z,8.43
2018-12-08T09:19:48.997Z,8.18
2018-12-08T09:25:00.799Z,8.57
2018-12-08T09:30:14.408Z,8.59
2018-12-08T09:35:26.256Z,8.80
2018-12-08T09:40:39.651Z,8.84
2018-12-08T09:45:52.734Z,8.68
2018-12-08T09:51:04.775Z,8.70
2018-12-08T09:56:17.386Z,8.89
2018-12-08T10:01:28.982Z,8.56
2018-12-08T10:06:42.031Z,8.42
2018-12-08T10:11:54.421Z,8.42
2018-12-08T10:17:07.527Z,8.32
2018-12-08T10:22:19.047Z,8.54
2018-12-08T10:27:32.378Z,8.47
2018-12-08T10:35:25.705Z,8.59
2018-12-08T10:40:38.351Z,8.63
2018-12-08T10:45:51.910Z,8.66
2018-12-08T10:51:05.086Z,9.29
2018-12-08T10:56:18.387Z,9.21
2018-12-08T11:01:34.906Z,8.99
2018-12-08T11:06:48.802Z,8.68
2018-12-08T11:11:59.988Z,8.56
2018-12-08T11:17:12.410Z,9.11
2018-12-08T11:22:24.043Z,8.93
2018-12-08T11:29:52.921Z,8.63
2018-12-08T11:35:04.471Z,8.73
2018-12-08T11:40:17.791Z,8.96
2018-12-08T11:45:29.730Z,8.74
2018-12-08T11:50:41.391Z,8.50
2018-12-08T11:55:53.704Z,8.47
2018-12-08T12:01:05.021Z,8.61
2018-12-08T12:06:17.671Z,8.85
2018-12-08T12:11:28.845Z,8.56
2018-12-08T12:13:58.595Z,8.93
2018-12-08T12:19:10.362Z,10.33
2018-12-08T12:24:22.683Z,11.92
2018-12-08T12:29:35.360Z,11.59
2018-12-08T12:34:46.818Z,11.17
2018-12-08T12:39:58.480Z,9.70
2018-12-08T12:45:11.831Z,9.27
2018-12-08T12:50:24.790Z,9.50
2018-12-08T12:55:36.033Z,11.18
2018-12-08T13:00:47.540Z,11.69
2018-12-08T13:06:00.909Z,12.65
2018-12-08T13:11:12.414Z,11.12
2018-12-08T13:13:42.528Z,10.89
2018-12-08T13:18:55.826Z,10.29
2018-12-08T13:24:08.251Z,9.71
2018-12-08T13:29:20.703Z,9.29
2018-12-08T13:34:32.642Z,8.94
2018-12-08T13:37:02.580Z,8.62
2018-12-08T13:42:14.047Z,8.47
2018-12-08T13:47:27.404Z,8.52
2018-12-08T13:52:39.042Z,8.34
2018-12-08T13:57:54.575Z,8.40
2018-12-08T14:03:06.361Z,8.16
2018-12-08T14:08:21.558Z,7.92
2018-12-08T14:13:32.739Z,7.95
2018-12-08T14:18:45.779Z,7.84
2018-12-08T14:23:56.824Z,7.77
2018-12-08T14:29:09.674Z,7.73
2018-12-08T14:34:21.741Z,7.69
2018-12-08T14:39:34.899Z,7.67
2018-12-08T14:44:45.314Z,7.49
2018-12-08T14:49:58.439Z,7.39
2018-12-08T14:55:11.378Z,7.28
2018-12-08T15:00:24.562Z,7.19
2018-12-08T15:05:35.070Z,7.05
2018-12-08T15:10:47.384Z,6.98
2018-12-08T15:15:58.761Z,7.01
2018-12-08T15:21:11.661Z,6.99
2018-12-08T15:26:24.876Z,7.07
2018-12-08T15:31:36.386Z,6.98
2018-12-08T15:34:06.515Z,6.88
2018-12-08T15:39:19.388Z,6.91
2018-12-08T15:44:31.595Z,6.93
2018-12-08T15:49:44.787Z,6.91
2018-12-08T15:54:56.018Z,6.99
2018-12-08T16:00:12.497Z,7.00
2018-12-08T16:05:25.018Z,7.03
2018-12-08T16:10:35.547Z,7.15
2018-12-08T16:15:48.738Z,7.18
2018-12-08T16:20:59.866Z,7.25
2018-12-08T16:26:13.022Z,7.30
2018-12-08T16:31:24.637Z,7.37
2018-12-08T16:36:37.390Z,7.39
2018-12-08T16:41:49.800Z,7.45
2018-12-08T16:47:02.631Z,7.51
2018-12-08T16:52:14.534Z,7.52
2018-12-08T16:57:26.827Z,7.63
2018-12-08T17:02:38.564Z,7.62
2018-12-08T17:07:52.414Z,7.63
2018-12-08T17:13:03.665Z,7.64
2018-12-08T17:18:15.479Z,7.72
2018-12-08T17:23:28.690Z,7.81
2018-12-08T17:28:41.291Z,7.70
2018-12-08T17:33:52.770Z,7.71
2018-12-08T17:39:08.063Z,7.75
2018-12-08T17:44:19.724Z,7.71
2018-12-08T17:49:32.676Z,7.60
2018-12-08T17:54:44.364Z,7.67
2018-12-08T17:59:55.413Z,7.73
2018-12-08T18:05:06.532Z,7.83
2018-12-08T18:10:21.246Z,7.80
2018-12-08T18:15:32.685Z,7.88
2018-12-08T18:20:43.909Z,7.84
2018-12-08T18:25:57.039Z,7.81
2018-12-08T18:31:08.921Z,7.89
2018-12-08T18:36:22.820Z,7.79
2018-12-08T18:41:35.666Z,7.87
2018-12-08T18:49:14.641Z,7.87
2018-12-08T18:54:26.791Z,7.77
2018-12-08T18:59:39.652Z,7.68
2018-12-08T19:04:52.038Z,7.64
2018-12-08T19:10:06.574Z,7.70
2018-12-08T19:15:18.779Z,7.80
2018-12-08T19:20:31.829Z,7.79
2018-12-08T19:25:43.626Z,7.87
2018-12-08T19:30:56.027Z,7.78
2018-12-08T19:36:10.258Z,7.78
2018-12-08T19:41:21.821Z,7.78
2018-12-08T19:46:35.966Z,7.80
2018-12-08T19:51:48.744Z,7.80
2018-12-08T19:57:01.843Z,7.71
2018-12-08T20:02:13.774Z,7.72
2018-12-08T20:07:25.593Z,7.70
2018-12-08T20:12:36.731Z,7.61
2018-12-08T20:17:52.391Z,7.59
2018-12-08T20:23:03.659Z,7.54
2018-12-08T20:28:16.575Z,7.44
2018-12-08T20:33:29.035Z,7.54
2018-12-08T20:38:41.702Z,7.50
2018-12-08T20:43:53.587Z,7.53
2018-12-08T20:49:06.789Z,7.57
2018-12-08T20:54:17.650Z,7.55
2018-12-08T20:59:30.691Z,7.61
2018-12-08T21:02:52.376Z,7.64
2018-12-08T21:08:05.733Z,7.73
2018-12-08T21:13:17.922Z,7.75
2018-12-08T21:18:30.790Z,7.89
2018-12-08T21:23:41.818Z,7.90
2018-12-08T21:28:55.040Z,7.93
2018-12-08T21:34:07.371Z,8.01
2018-12-08T21:39:20.367Z,8.03
2018-12-08T21:44:31.713Z,8.15
2018-12-08T21:49:44.657Z,8.19
2018-12-08T21:54:56.683Z,8.12
2018-12-08T22:00:10.939Z,8.15
2018-12-08T22:05:22.575Z,8.23
2018-12-08T22:10:37.571Z,8.20
2018-12-08T22:15:50.509Z,8.14
2018-12-08T22:21:02.503Z,8.18
2018-12-08T22:26:15.244Z,8.28
2018-12-08T22:31:26.916Z,8.34
2018-12-08T22:36:39.431Z,8.42
2018-12-08T22:41:51.626Z,8.53
2018-12-08T22:47:04.592Z,8.59
2018-12-08T22:52:16.491Z,8.61
2018-12-08T22:57:29.724Z,8.65
2018-12-08T23:02:40.373Z,8.75
2018-12-08T23:07:53.780Z,8.73
2018-12-08T23:13:05.330Z,8.65
2018-12-08T23:18:18.945Z,8.38
2018-12-08T23:23:30.049Z,8.09
2018-12-08T23:28:43.361Z,8.10
2018-12-08T23:32:16.389Z,8.10
2018-12-08T23:37:29.391Z,8.08
2018-12-08T23:42:42.814Z,8.22
2018-12-08T23:47:55.756Z,8.27
2018-12-08T23:53:07.863Z,8.36
2018-12-08T23:58:20.645Z,8.43
